Centeno, Argentina
Current Conditions -  °F | °C
As of 10:00 AM on Saturday 27 Dec 2014 (Local Time) from SAAR Reporting Station
Broken Clouds Broken Clouds  
Wind Chill: 73°   Ceiling: 20000
Heat Index: 73°   Visibility: 6mi
Dew Point: 68°   Wind: 10mph
Humidity: 83%   Direction: 110°ESE
Pressure: 29.85"   Gusts: NA
Location:  32.31°S, 61.42°W
Report Text: SAAR 271300Z 11009KT 9999 FEW015 SCT100BKN200 23/20 Q1011
Loading
Personal Weather Stations






























Interactive Weather Map New forecast layout! Learn more

10-Day Weather Forecast

Advertisements
Track Severe Weather on mobile